MDT,Max TemperatureF,Mean TemperatureF,Min TemperatureF,Max Dew PointF,MeanDew PointF,Min DewpointF,Max Humidity, Mean Humidity, Min Humidity, Max Sea Level PressureIn, Mean Sea Level PressureIn, Min Sea Level PressureIn, Max VisibilityMiles, Mean VisibilityMiles, Min VisibilityMiles, Max Wind SpeedMPH, Mean Wind SpeedMPH, Max Gust SpeedMPH,PrecipitationIn, CloudCover, Events, WindDirDegrees
2012-10-1,78,56,35,34,28,25,75,38,14,30.37,30.29,30.23,10,10,10,9,4,16,0.00,0,,326
2012-10-2,82,58,33,30,25,21,70,35,12,30.28,30.21,30.11,10,10,10,18,6,28,0.00,0,,326
2012-10-3,84,58,32,27,23,19,69,31,10,30.25,30.19,30.15,10,10,10,21,7,28,0.00,0,,307
2012-10-4,80,63,46,32,28,25,53,27,14,30.35,30.28,30.22,10,10,10,22,10,31,0.00,0,,281
2012-10-5,78,63,48,34,27,21,54,28,12,30.26,30.21,30.14,10,10,10,18,8,28,0.00,0,,274
2012-10-6,77,64,51,30,25,19,36,24,13,30.18,30.12,30.06,10,10,10,18,10,28,0.00,0,,275
2012-10-7,73,54,33,36,19,3,76,35,7,30.21,30.15,30.09,10,10,10,23,10,28,0.00,0,,10
2012-10-8,77,52,28,27,14,5,46,24,12,30.24,30.18,30.10,10,10,10,16,6,26,0.00,0,,301
2012-10-9,78,56,35,34,26,21,75,36,14,30.23,30.18,30.12,10,10,10,13,4,18,0.00,0,,303
2012-10-10,78,56,33,32,28,21,65,37,17,30.29,30.21,30.11,10,10,10,16,5,24,0.00,0,,134
2012-10-11,77,55,33,41,32,21,75,44,14,30.23,30.19,30.15,10,10,10,15,5,32,0.00,3,Rain,206
2012-10-12,71,56,39,50,35,21,72,46,16,30.20,30.13,30.04,10,10,10,24,11,47,0.03,3,Thunderstorm,197
2012-10-13,62,46,30,34,31,27,93,59,30,30.32,30.22,30.16,10,10,10,20,8,28,0.00,1,,324
2012-10-14,71,50,30,37,30,23,93,55,16,30.43,30.36,30.29,10,10,10,12,3,17,0.00,0,,321
2012-10-15,77,54,30,32,27,23,80,47,14,30.35,30.26,30.14,10,10,10,10,6,9,0.00,0,,326
2012-10-16,80,55,30,28,21,12,80,37,9,30.18,30.08,29.97,10,10,10,15,5,25,0.00,0,,317
2012-10-17,73,56,37,36,22,3,53,27,13,30.19,30.09,30.01,10,10,10,21,8,29,0.00,0,,327
2012-10-18,75,54,32,14,9,1,32,19,10,30.26,30.21,30.16,10,10,10,17,8,26,0.00,0,,333
2012-10-19,79,54,30,19,13,9,44,26,8,30.28,30.19,30.10,10,10,10,14,6,17,0.00,0,Thunderstorm,328
2012-10-20,79,52,26,34,19,10,52,30,12,30.15,30.07,29.98,10,10,10,16,6,23,0.00,0,,292
2012-10-21,74,56,37,38,31,23,79,41,15,30.12,30.06,30.01,10,10,10,16,4,24,0.00,1,,273
2012-10-22,74,52,31,36,28,21,72,41,13,30.14,30.09,30.03,10,10,10,17,5,25,0.00,0,,274
2012-10-23,75,52,29,32,25,21,76,38,13,30.14,30.08,30.03,10,10,10,17,5,24,0.00,0,,216
2012-10-24,74,55,36,31,25,16,66,33,13,30.06,30.00,29.91,10,10,10,30,7,45,0.00,0,,239
2012-10-25,64,46,29,22,13,8,62,31,11,30.22,30.15,30.07,10,10,10,15,7,23,0.00,0,,324
2012-10-26,53,37,21,15,6,-6,68,31,9,30.37,30.30,30.23,10,10,10,13,6,18,0.00,0,,348
2012-10-27,65,40,15,14,2,-6,40,24,10,30.27,30.22,30.13,10,10,10,15,5,21,0.00,0,,334
2012-10-28,69,46,23,17,10,2,40,27,13,30.30,30.25,30.18,10,10,10,9,5,10,0.00,0,,329
2012-10-29,73,48,24,16,11,8,53,29,9,30.37,30.30,30.23,10,10,10,20,7,29,0.00,0,,324
2012-10-30,71,48,24,20,13,6,49,28,13,30.33,30.27,30.21,10,10,10,14,6,20,0.00,0,,328
2012-10-31,71,47,23,19,14,9,58,32,11,30.32,30.26,30.19,10,10,10,8,4,,0.00,0,,323